createdAt,value
2022-09-13T00:01:27.097Z,99491.13
2022-09-13T00:03:56.111Z,99496.31
2022-09-13T00:06:26.300Z,99499.13
2022-09-13T00:08:55.137Z,99497.84
2022-09-13T00:11:26.680Z,99493.94
2022-09-13T00:13:55.903Z,99493.88
2022-09-13T00:16:27.129Z,99502.94
2022-09-13T00:18:56.327Z,99501.12
2022-09-13T00:21:27.842Z,99498.94
2022-09-13T00:23:56.352Z,99494.56
2022-09-13T00:26:26.875Z,99495.09
2022-09-13T00:28:57.234Z,99493.94
2022-09-13T00:31:27.559Z,99492.16
2022-09-13T00:33:58.518Z,99493.97
2022-09-13T00:36:29.076Z,99492.94
2022-09-13T00:38:58.052Z,99498.44
2022-09-13T00:41:26.927Z,99487.62
2022-09-13T00:43:58.976Z,99483.88
2022-09-13T00:46:35.444Z,99485.94
2022-09-13T00:49:14.138Z,99489.81
2022-09-13T00:51:46.674Z,99485.94
2022-09-13T00:54:18.991Z,99493.19
2022-09-13T00:56:51.635Z,99491.09
2022-09-13T00:59:25.253Z,99486.72
2022-09-13T01:01:56.234Z,99487.66
2022-09-13T01:04:27.886Z,99488.59
2022-09-13T01:07:00.759Z,99480.22
2022-09-13T01:09:29.602Z,99492.25
2022-09-13T01:12:04.513Z,99490.59
2022-09-13T01:14:34.122Z,99485.22
2022-09-13T01:17:02.997Z,99493.28
2022-09-13T01:19:31.617Z,99487.81
2022-09-13T01:22:35.828Z,99490.94
2022-09-13T01:25:47.154Z,99492.38
2022-09-13T01:28:53.590Z,99490.66
2022-09-13T01:31:32.699Z,99481.38
2022-09-13T01:34:15.147Z,99483.13
2022-09-13T01:36:55.726Z,99485.50
2022-09-13T01:39:35.396Z,99488.25
2022-09-13T01:42:12.642Z,99482.75
2022-09-13T01:44:50.988Z,99481.25
2022-09-13T01:47:26.739Z,99475.03
2022-09-13T01:50:02.747Z,99478.72
2022-09-13T01:52:39.991Z,99479.88
2022-09-13T01:55:12.754Z,99479.28
2022-09-13T01:57:48.065Z,99474.16
2022-09-13T02:00:20.354Z,99467.06
2022-09-13T02:02:52.989Z,99469.28
2022-09-13T02:05:26.059Z,99468.06
2022-09-13T02:08:01.054Z,99472.06
2022-09-13T02:10:35.283Z,99469.31
2022-09-13T02:13:07.160Z,99464.88
2022-09-13T02:15:38.738Z,99469.88
2022-09-13T02:18:09.667Z,99467.25
2022-09-13T02:20:40.209Z,99468.19
2022-09-13T02:23:13.233Z,99471.72
2022-09-13T02:25:42.626Z,99464.16
2022-09-13T02:28:14.109Z,99460.66
2022-09-13T02:30:47.218Z,99454.53
2022-09-13T02:33:19.678Z,99449.41
2022-09-13T02:35:52.443Z,99447.44
2022-09-13T02:38:25.629Z,99450.66
2022-09-13T02:40:58.331Z,99449.41
2022-09-13T02:43:31.559Z,99450.03
2022-09-13T02:46:11.833Z,99449.06
2022-09-13T02:48:49.753Z,99450.34
2022-09-13T02:51:25.668Z,99454.03
2022-09-13T02:54:00.228Z,99450.84
2022-09-13T02:56:35.495Z,99446.91
2022-09-13T02:59:07.165Z,99441.19
2022-09-13T03:01:36.781Z,99441.78
2022-09-13T03:04:07.198Z,99435.75
2022-09-13T03:06:36.190Z,99440.97
2022-09-13T03:09:06.775Z,99432.16
2022-09-13T03:11:44.649Z,99432.50
2022-09-13T03:14:20.590Z,99429.72
2022-09-13T03:17:02.881Z,99421.16
2022-09-13T03:19:44.300Z,99427.81
2022-09-13T03:22:24.951Z,99424.66
2022-09-13T03:25:02.168Z,99425.41
2022-09-13T03:27:35.734Z,99420.38
2022-09-13T03:30:06.957Z,99419.94
2022-09-13T03:32:42.422Z,99415.94
2022-09-13T03:35:21.100Z,99422.22
2022-09-13T03:37:58.581Z,99415.28
2022-09-13T03:40:37.095Z,99414.94
2022-09-13T03:43:09.637Z,99418.12
2022-09-13T03:45:44.278Z,99416.97
2022-09-13T03:48:13.504Z,99413.75
2022-09-13T03:50:44.855Z,99403.59
2022-09-13T03:53:16.529Z,99417.50
2022-09-13T03:55:45.498Z,99403.00
2022-09-13T03:58:14.807Z,99410.50
2022-09-13T04:00:43.442Z,99412.41
2022-09-13T04:03:12.771Z,99401.78
2022-09-13T04:05:41.480Z,99405.72
2022-09-13T04:08:11.456Z,99408.25
2022-09-13T04:10:40.749Z,99413.63
2022-09-13T04:13:09.304Z,99408.25
2022-09-13T04:15:37.867Z,99419.44
2022-09-13T04:18:06.768Z,99421.53
2022-09-13T04:20:35.877Z,99423.03
2022-09-13T04:23:04.915Z,99423.44
2022-09-13T04:25:35.274Z,99423.56
2022-09-13T04:28:04.006Z,99421.69
2022-09-13T04:30:34.865Z,99423.66
2022-09-13T04:33:03.682Z,99425.44
2022-09-13T04:35:32.321Z,99419.28
2022-09-13T04:38:00.928Z,99423.03
2022-09-13T04:40:29.838Z,99416.59
2022-09-13T04:42:59.737Z,99418.72
2022-09-13T04:45:28.542Z,99424.13
2022-09-13T04:47:57.728Z,99420.16
2022-09-13T04:50:26.750Z,99424.50
2022-09-13T04:52:56.429Z,99424.31
2022-09-13T04:55:26.099Z,99425.84
2022-09-13T04:57:56.042Z,99425.78
2022-09-13T05:00:26.587Z,99432.47
2022-09-13T05:02:57.982Z,99432.41
2022-09-13T05:05:28.790Z,99436.59
2022-09-13T05:07:57.393Z,99431.28
2022-09-13T05:10:26.026Z,99430.09
2022-09-13T05:12:55.739Z,99430.81
2022-09-13T05:15:24.292Z,99423.69
2022-09-13T05:17:54.197Z,99430.81
2022-09-13T05:20:23.037Z,99426.28
2022-09-13T05:22:51.621Z,99432.47
2022-09-13T05:25:24.131Z,99430.53
2022-09-13T05:27:54.737Z,99433.03
2022-09-13T05:30:23.389Z,99433.81
2022-09-13T05:32:51.998Z,99436.81
2022-09-13T05:35:22.178Z,99423.56
2022-09-13T05:37:50.763Z,99430.63
2022-09-13T05:40:19.430Z,99424.84
2022-09-13T05:42:48.226Z,99435.78
2022-09-13T05:45:16.890Z,99424.34
2022-09-13T05:47:45.436Z,99431.00
2022-09-13T05:50:31.991Z,99431.53
2022-09-13T05:53:04.483Z,99431.97
2022-09-13T05:55:34.159Z,99438.59
2022-09-13T05:58:03.368Z,99431.72
2022-09-13T06:00:32.446Z,99433.00
2022-09-13T06:03:01.262Z,99431.44
2022-09-13T06:05:31.842Z,99442.91
2022-09-13T06:08:03.022Z,99447.59
2022-09-13T06:10:33.574Z,99452.63
2022-09-13T06:13:02.393Z,99452.00
2022-09-13T06:15:30.983Z,99443.31
2022-09-13T06:17:59.808Z,99437.19
2022-09-13T06:20:28.636Z,99439.78
2022-09-13T06:22:57.209Z,99437.41
2022-09-13T06:25:25.774Z,99438.38
2022-09-13T06:27:56.041Z,99442.72
2022-09-13T06:30:24.629Z,99440.78
2022-09-13T06:32:53.234Z,99445.47
2022-09-13T06:35:22.458Z,99439.59
2022-09-13T06:37:51.033Z,99443.91
2022-09-13T06:40:24.535Z,99440.81
2022-09-13T06:42:54.146Z,99440.88
2022-09-13T06:45:24.076Z,99438.91
2022-09-13T06:47:55.109Z,99442.56
2022-09-13T06:50:23.962Z,99444.66
2022-09-13T06:52:52.535Z,99439.81
2022-09-13T06:55:22.149Z,99436.41
2022-09-13T06:57:51.000Z,99443.38
2022-09-13T07:00:19.699Z,99447.78
2022-09-13T07:02:52.983Z,99448.34
2022-09-13T07:05:22.354Z,99453.97
2022-09-13T07:07:51.143Z,99443.78
2022-09-13T07:10:19.859Z,99453.13
2022-09-13T07:12:48.725Z,99450.66
2022-09-13T07:15:17.463Z,99456.47
2022-09-13T07:17:46.042Z,99451.31
2022-09-13T07:20:17.376Z,99450.22
2022-09-13T07:22:45.974Z,99458.50
2022-09-13T07:25:15.037Z,99462.03
2022-09-13T07:27:43.576Z,99462.41
2022-09-13T07:30:12.517Z,99458.47
2022-09-13T07:32:42.592Z,99465.03
2022-09-13T07:35:11.778Z,99462.88
2022-09-13T07:37:42.362Z,99462.31
2022-09-13T07:40:12.381Z,99459.75
2022-09-13T07:42:40.972Z,99460.53
2022-09-13T07:45:11.001Z,99456.12
2022-09-13T07:47:39.856Z,99463.44
2022-09-13T07:50:08.981Z,99466.13
2022-09-13T07:52:38.138Z,99464.66
2022-09-13T07:55:09.001Z,99463.91
2022-09-13T07:57:37.548Z,99463.19
2022-09-13T08:00:07.459Z,99463.66
2022-09-13T08:02:40.307Z,99458.53
2022-09-13T08:05:09.430Z,99456.09
2022-09-13T08:07:37.961Z,99457.84
2022-09-13T08:10:08.853Z,99458.81
2022-09-13T08:12:37.800Z,99464.28
2022-09-13T08:15:07.425Z,99460.47
2022-09-13T08:17:36.011Z,99464.50
2022-09-13T08:20:06.698Z,99461.47
2022-09-13T08:22:35.254Z,99464.78
2022-09-13T08:25:09.311Z,99469.38
2022-09-13T08:27:38.316Z,99467.81
2022-09-13T08:30:10.408Z,99468.16
2022-09-13T08:32:39.275Z,99458.84
2022-09-13T08:35:08.490Z,99457.88
2022-09-13T08:37:37.103Z,99457.38
2022-09-13T08:40:06.773Z,99457.22
2022-09-13T08:42:49.283Z,99458.78
2022-09-13T08:45:18.331Z,99450.63
2022-09-13T08:47:49.428Z,99455.56
2022-09-13T08:50:22.389Z,99462.06
2022-09-13T08:53:04.943Z,99457.19
2022-09-13T08:55:42.167Z,99460.41
2022-09-13T08:58:26.055Z,99452.81
2022-09-13T09:01:00.404Z,99453.41
2022-09-13T09:03:33.348Z,99459.06
2022-09-13T09:06:02.195Z,99461.72
2022-09-13T09:08:34.364Z,99455.25
2022-09-13T09:11:05.752Z,99447.56
2022-09-13T09:13:38.718Z,99451.16
2022-09-13T09:16:11.927Z,99445.37
2022-09-13T09:18:44.700Z,99446.72
2022-09-13T09:21:17.534Z,99441.81
2022-09-13T09:23:50.414Z,99439.66
2022-09-13T09:26:20.800Z,99433.56
2022-09-13T09:28:52.069Z,99433.84
2022-09-13T09:31:27.003Z,99431.75
2022-09-13T09:34:08.948Z,99431.09
2022-09-13T09:36:42.219Z,99426.47
2022-09-13T09:39:13.074Z,99422.97
2022-09-13T09:41:41.711Z,99422.69
2022-09-13T09:44:19.852Z,99419.91
2022-09-13T09:46:51.588Z,99420.84
2022-09-13T09:49:43.101Z,99420.75
2022-09-13T09:52:12.906Z,99419.44
2022-09-13T09:54:41.746Z,99415.03
2022-09-13T09:57:11.514Z,99408.22
2022-09-13T09:59:41.709Z,99397.41
2022-09-13T10:02:16.847Z,99396.56
2022-09-13T10:04:55.872Z,99388.22
2022-09-13T10:07:28.197Z,99389.41
2022-09-13T10:10:03.383Z,99385.53
2022-09-13T10:12:34.942Z,99387.00
2022-09-13T10:15:08.315Z,99376.41
2022-09-13T10:17:37.022Z,99377.66
2022-09-13T10:20:21.703Z,99380.62
2022-09-13T10:23:12.130Z,99383.37
2022-09-13T10:25:45.922Z,99376.34
2022-09-13T10:28:19.046Z,99376.09
2022-09-13T10:30:53.643Z,99373.16
2022-09-13T10:33:27.430Z,99364.91
2022-09-13T10:35:58.137Z,99366.31
2022-09-13T10:38:31.961Z,99361.13
2022-09-13T10:41:02.377Z,99357.00
2022-09-13T10:43:32.127Z,99355.81
2022-09-13T10:46:04.654Z,99356.00
2022-09-13T10:48:46.091Z,99364.06
2022-09-13T10:51:37.107Z,99366.13
2022-09-13T10:54:11.631Z,99362.31
2022-09-13T10:56:40.438Z,99358.78
2022-09-13T10:59:22.617Z,99362.09
2022-09-13T11:02:06.043Z,99358.44
2022-09-13T11:04:57.616Z,99358.09
2022-09-13T11:07:43.738Z,99349.38
2022-09-13T11:10:17.587Z,99355.31
2022-09-13T11:12:54.543Z,99354.44
2022-09-13T11:15:37.095Z,99350.03
2022-09-13T11:18:30.875Z,99341.66
2022-09-13T11:21:05.459Z,99346.34
2022-09-13T11:23:52.683Z,99348.38
2022-09-13T11:26:38.344Z,99351.81
2022-09-13T11:29:16.231Z,99347.47
2022-09-13T11:31:49.731Z,99338.06
2022-09-13T11:34:38.837Z,99337.63
2022-09-13T11:37:35.324Z,99328.88
2022-09-13T11:40:24.411Z,99335.94
2022-09-13T11:43:00.446Z,99334.03
2022-09-13T11:45:30.426Z,99316.56
2022-09-13T11:48:19.261Z,99319.34
2022-09-13T11:50:57.031Z,99313.91
2022-09-13T11:53:50.349Z,99315.22
2022-09-13T11:56:23.783Z,99306.78
2022-09-13T11:58:54.315Z,99304.00
2022-09-13T12:01:26.929Z,99299.28
2022-09-13T12:04:01.025Z,99298.69
2022-09-13T12:06:33.482Z,99303.38
2022-09-13T12:09:08.684Z,99303.53
2022-09-13T12:11:41.440Z,99306.44
2022-09-13T12:14:13.766Z,99295.56
2022-09-13T12:16:45.066Z,99301.19
2022-09-13T12:19:17.723Z,99297.63
2022-09-13T12:21:49.180Z,99296.41
2022-09-13T12:24:19.942Z,99293.97
2022-09-13T12:26:53.290Z,99290.63
2022-09-13T12:29:26.778Z,99291.22
2022-09-13T12:32:00.346Z,99286.63
2022-09-13T12:34:32.571Z,99276.69
2022-09-13T12:37:35.644Z,99281.03
2022-09-13T12:40:20.908Z,99273.44
2022-09-13T12:43:01.948Z,99275.78
2022-09-13T12:45:56.501Z,99279.81
2022-09-13T12:48:36.302Z,99276.09
2022-09-13T12:51:12.346Z,99272.88
2022-09-13T12:54:13.258Z,99265.12
2022-09-13T12:57:06.035Z,99259.94
2022-09-13T12:59:56.418Z,99274.88
2022-09-13T13:02:32.036Z,99271.22
2022-09-13T13:05:04.178Z,99266.84
2022-09-13T13:07:35.463Z,99269.50
2022-09-13T13:10:06.555Z,99268.41
2022-09-13T13:12:37.887Z,99261.91
2022-09-13T13:15:15.662Z,99259.88
2022-09-13T13:17:47.566Z,99255.53
2022-09-13T13:20:48.791Z,99258.41
2022-09-13T13:23:24.449Z,99255.25
2022-09-13T13:26:08.969Z,99261.87
2022-09-13T13:28:53.017Z,99256.00
2022-09-13T13:31:36.619Z,99249.56
2022-09-13T13:34:40.616Z,99248.81
2022-09-13T13:37:32.281Z,99253.94
2022-09-13T13:40:29.668Z,99243.47
2022-09-13T13:43:30.943Z,99236.19
2022-09-13T13:46:16.178Z,99227.59
2022-09-13T13:48:45.054Z,99225.81
2022-09-13T13:51:16.049Z,99233.81
2022-09-13T13:53:47.851Z,99232.22
2022-09-13T13:56:24.756Z,99229.19
2022-09-13T13:58:56.919Z,99231.34
2022-09-13T14:01:27.613Z,99231.94
2022-09-13T14:04:26.888Z,99232.69
2022-09-13T14:07:06.383Z,99225.25
2022-09-13T14:09:45.015Z,99224.09
2022-09-13T14:12:25.898Z,99220.75
2022-09-13T14:15:10.260Z,99222.56
2022-09-13T14:18:00.782Z,99214.28
2022-09-13T14:20:29.829Z,99216.87
2022-09-13T14:23:17.447Z,99219.94
2022-09-13T14:25:46.768Z,99216.34
2022-09-13T14:28:24.303Z,99210.25
2022-09-13T14:30:59.247Z,99199.88
2022-09-13T14:33:32.100Z,99198.72
2022-09-13T14:36:04.593Z,99197.41
2022-09-13T14:38:35.589Z,99204.69
2022-09-13T14:41:14.478Z,99208.25
2022-09-13T14:43:43.657Z,99203.78
2022-09-13T14:46:18.830Z,99204.50
2022-09-13T14:48:51.431Z,99199.56
2022-09-13T14:51:24.666Z,99200.81
2022-09-13T14:53:55.527Z,99194.69
2022-09-13T14:56:34.644Z,99196.41
2022-09-13T14:59:05.164Z,99191.41
2022-09-13T15:01:35.875Z,99185.66
2022-09-13T15:04:05.730Z,99180.63
2022-09-13T15:06:38.367Z,99184.44
2022-09-13T15:09:24.235Z,99180.19
2022-09-13T15:12:01.153Z,99177.63
2022-09-13T15:14:32.241Z,99175.47
2022-09-13T15:17:08.977Z,99174.09
2022-09-13T15:19:40.047Z,99171.84
2022-09-13T15:22:18.900Z,99171.84
2022-09-13T15:24:49.704Z,99166.91
2022-09-13T15:27:29.462Z,99166.53
2022-09-13T15:29:59.858Z,99160.84
2022-09-13T15:32:35.380Z,99147.50
2022-09-13T15:35:04.079Z,99152.72
2022-09-13T15:37:36.969Z,99149.59
2022-09-13T15:40:18.725Z,99155.94
2022-09-13T15:42:52.188Z,99150.78
2022-09-13T15:45:21.983Z,99149.50
2022-09-13T15:47:53.349Z,99148.16
2022-09-13T15:50:27.621Z,99148.06
2022-09-13T15:52:58.850Z,99142.38
2022-09-13T15:55:27.461Z,99152.38
2022-09-13T15:57:56.469Z,99150.25
2022-09-13T16:00:27.081Z,99150.47
2022-09-13T16:02:57.112Z,99147.00
2022-09-13T16:05:25.665Z,99131.38
2022-09-13T16:07:58.806Z,99128.81
2022-09-13T16:10:28.944Z,99124.37
2022-09-13T16:12:57.861Z,99121.59
2022-09-13T16:15:28.276Z,99120.75
2022-09-13T16:17:58.476Z,99120.75
2022-09-13T16:20:27.771Z,99113.19
2022-09-13T16:22:56.456Z,99116.91
2022-09-13T16:25:24.996Z,99110.78
2022-09-13T16:27:55.277Z,99115.94
2022-09-13T16:30:23.890Z,99114.38
2022-09-13T16:32:53.005Z,99115.56
2022-09-13T16:35:23.477Z,99110.16
2022-09-13T16:37:52.656Z,99107.06
2022-09-13T16:40:21.772Z,99112.59
2022-09-13T16:42:50.766Z,99119.13
2022-09-13T16:45:19.644Z,99113.41
2022-09-13T16:47:48.261Z,99114.56
2022-09-13T16:50:17.201Z,99114.66
2022-09-13T16:52:47.112Z,99111.53
2022-09-13T16:55:16.085Z,99113.91
2022-09-13T16:57:48.192Z,99110.78
2022-09-13T17:00:20.065Z,99112.50
2022-09-13T17:02:48.984Z,99120.56
2022-09-13T17:05:17.687Z,99117.19
2022-09-13T17:07:47.593Z,99119.84
2022-09-13T17:10:17.262Z,99129.16
2022-09-13T17:12:45.866Z,99124.69
2022-09-13T17:15:14.590Z,99119.53
2022-09-13T17:17:43.428Z,99123.34
2022-09-13T17:20:13.283Z,99132.53
2022-09-13T17:22:42.227Z,99133.63
2022-09-13T17:25:16.133Z,99124.41
2022-09-13T17:27:44.753Z,99126.00
2022-09-13T17:30:14.951Z,99126.81
2022-09-13T17:32:43.574Z,99126.94
2022-09-13T17:35:12.490Z,99123.25
2022-09-13T17:37:41.343Z,99121.75
2022-09-13T17:40:10.404Z,99119.84
2022-09-13T17:42:40.342Z,99119.47
2022-09-13T17:45:09.719Z,99114.38
2022-09-13T17:47:38.275Z,99117.09
2022-09-13T17:50:07.843Z,99120.72
2022-09-13T17:52:36.851Z,99114.16
2022-09-13T17:55:07.151Z,99124.19
2022-09-13T17:57:36.006Z,99112.41
2022-09-13T18:00:08.579Z,99114.47
2022-09-13T18:02:37.793Z,99120.75
2022-09-13T18:05:10.586Z,99125.34
2022-09-13T18:07:42.011Z,99117.00
2022-09-13T18:10:31.345Z,99118.19
2022-09-13T18:13:00.326Z,99121.66
2022-09-13T18:15:30.506Z,99123.69
2022-09-13T18:17:59.352Z,99125.75
2022-09-13T18:20:28.363Z,99129.34
2022-09-13T18:22:57.363Z,99127.69
2022-09-13T18:25:26.684Z,99131.75
2022-09-13T18:27:55.964Z,99134.03
2022-09-13T18:30:24.853Z,99134.47
2022-09-13T18:32:55.625Z,99132.91
2022-09-13T18:35:24.559Z,99142.03
2022-09-13T18:37:53.543Z,99147.31
2022-09-13T18:40:23.147Z,99144.06
2022-09-13T18:42:52.249Z,99143.88
2022-09-13T18:45:21.101Z,99149.78
2022-09-13T18:47:49.920Z,99157.31
2022-09-13T18:50:20.512Z,99155.19
2022-09-13T18:52:49.442Z,99156.59
2022-09-13T18:55:18.465Z,99154.59
2022-09-13T18:57:47.714Z,99160.34
2022-09-13T19:00:17.343Z,99155.28
2022-09-13T19:03:08.465Z,99153.78
2022-09-13T19:05:39.550Z,99157.63
2022-09-13T19:08:10.585Z,99158.50
2022-09-13T19:10:39.736Z,99159.25
2022-09-13T19:13:11.272Z,99156.69
2022-09-13T19:15:43.273Z,99161.31
2022-09-13T19:18:12.383Z,99152.66
2022-09-13T19:20:43.115Z,99147.37
2022-09-13T19:23:12.105Z,99151.25
2022-09-13T19:25:42.442Z,99147.50
2022-09-13T19:28:11.578Z,99153.63
2022-09-13T19:30:41.045Z,99156.34
2022-09-13T19:33:11.188Z,99159.72
2022-09-13T19:35:40.153Z,99147.66
2022-09-13T19:38:11.197Z,99142.38
2022-09-13T19:40:41.652Z,99148.03
2022-09-13T19:43:10.986Z,99147.22
2022-09-13T19:45:40.227Z,99142.22
2022-09-13T19:51:03.985Z,99139.75
2022-09-13T19:53:55.563Z,99138.44
2022-09-13T19:56:31.100Z,99135.53
2022-09-13T19:59:00.319Z,99137.13
2022-09-13T20:01:31.765Z,99137.81
2022-09-13T20:04:02.367Z,99146.25
2022-09-13T20:06:36.180Z,99139.31
2022-09-13T20:09:09.283Z,99136.28
2022-09-13T20:11:42.632Z,99139.94
2022-09-13T20:14:30.588Z,99135.44
2022-09-13T20:16:59.504Z,99134.50
2022-09-13T20:19:49.715Z,99135.91
2022-09-13T20:22:17.837Z,99140.97
2022-09-13T20:24:48.964Z,99143.88
2022-09-13T20:27:17.878Z,99137.72
2022-09-13T20:29:47.347Z,99135.91
2022-09-13T20:32:19.062Z,99132.16
2022-09-13T20:34:50.265Z,99135.81
2022-09-13T20:37:19.734Z,99139.22
2022-09-13T20:39:51.195Z,99133.31
2022-09-13T20:42:20.074Z,99139.56
2022-09-13T20:44:49.019Z,99134.72
2022-09-13T20:47:18.053Z,99137.56
2022-09-13T20:49:47.006Z,99136.28
2022-09-13T20:52:16.471Z,99135.16
2022-09-13T20:54:45.123Z,99132.63
2022-09-13T20:57:14.999Z,99129.63
2022-09-13T20:59:44.292Z,99131.03
2022-09-13T21:02:12.941Z,99134.59
2022-09-13T21:04:41.561Z,99133.38
2022-09-13T21:07:29.749Z,99136.84
2022-09-13T21:10:01.037Z,99137.78
2022-09-13T21:12:32.041Z,99132.63
2022-09-13T21:15:00.661Z,99120.47
2022-09-13T21:17:29.279Z,99121.31
2022-09-13T21:19:59.493Z,99117.28
2022-09-13T21:22:29.262Z,99125.88
2022-09-13T21:24:58.089Z,99118.25
2022-09-13T21:27:26.658Z,99108.75
2022-09-13T21:29:56.893Z,99112.88
2022-09-13T21:32:25.810Z,99124.53
2022-09-13T21:34:54.389Z,99122.56
2022-09-13T21:37:22.969Z,99106.19
2022-09-13T21:39:52.035Z,99115.91
2022-09-13T21:42:20.605Z,99110.78
2022-09-13T21:44:49.199Z,99111.00
2022-09-13T21:47:19.398Z,99107.16
2022-09-13T21:49:47.982Z,99106.97
2022-09-13T21:52:16.702Z,99114.38
2022-09-13T21:54:45.789Z,99113.91
2022-09-13T21:57:14.454Z,99109.13
2022-09-13T21:59:43.179Z,99109.78
2022-09-13T22:02:12.390Z,99112.22
2022-09-13T22:04:43.494Z,99111.25
2022-09-13T22:07:13.444Z,99104.38
2022-09-13T22:09:42.458Z,99098.00
2022-09-13T22:12:11.007Z,99098.59
2022-09-13T22:14:39.501Z,99097.62
2022-09-13T22:17:08.334Z,99091.72
2022-09-13T22:19:36.996Z,99092.63
2022-09-13T22:22:06.951Z,99088.81
2022-09-13T22:24:36.565Z,99087.34
2022-09-13T22:27:07.137Z,99086.03
2022-09-13T22:29:35.951Z,99087.69
2022-09-13T22:32:04.867Z,99088.22
2022-09-13T22:34:34.998Z,99081.53
2022-09-13T22:37:03.810Z,99081.28
2022-09-13T22:39:33.731Z,99081.63
2022-09-13T22:42:02.285Z,99076.84
2022-09-13T22:44:31.126Z,99072.50
2022-09-13T22:47:00.535Z,99071.66
2022-09-13T22:49:29.090Z,99077.38
2022-09-13T22:52:00.428Z,99083.47
2022-09-13T22:54:29.505Z,99074.72
2022-09-13T22:57:00.928Z,99076.28
2022-09-13T22:59:29.507Z,99076.69
2022-09-13T23:01:58.411Z,99074.84
2022-09-13T23:04:26.942Z,99075.75
2022-09-13T23:06:55.500Z,99081.47
2022-09-13T23:09:24.325Z,99072.22
2022-09-13T23:11:52.876Z,99078.84
2022-09-13T23:14:22.790Z,99083.31
2022-09-13T23:16:52.251Z,99077.91
2022-09-13T23:19:22.878Z,99080.03
2022-09-13T23:21:53.550Z,99080.03
2022-09-13T23:24:24.196Z,99085.63
2022-09-13T23:26:55.303Z,99080.94
2022-09-13T23:29:25.469Z,99074.78
2022-09-13T23:31:54.575Z,99078.56
2022-09-13T23:34:23.535Z,99074.19
2022-09-13T23:36:52.487Z,99074.59
2022-09-13T23:39:21.765Z,99075.84
2022-09-13T23:41:53.149Z,99077.47
2022-09-13T23:44:21.962Z,99080.84
2022-09-13T23:46:52.243Z,99080.63
2022-09-13T23:49:20.845Z,99079.41
2022-09-13T23:51:49.935Z,99077.44
2022-09-13T23:54:18.609Z,99068.53
2022-09-13T23:56:47.205Z,99064.06
2022-09-13T23:59:16.161Z,99066.53
